sensor_id;sensor_type;location;lat;lon;timestamp;temperature;humidity
4487;DHT22;2256;48.740;9.106;2023-06-24T00:02:26;16.00;99.90
4487;DHT22;2256;48.740;9.106;2023-06-24T00:04:54;16.00;99.90
4487;DHT22;2256;48.740;9.106;2023-06-24T00:07:26;15.90;99.90
4487;DHT22;2256;48.740;9.106;2023-06-24T00:09:53;15.80;99.90
4487;DHT22;2256;48.740;9.106;2023-06-24T00:12:20;15.80;99.90
4487;DHT22;2256;48.740;9.106;2023-06-24T00:14:58;15.70;99.90
4487;DHT22;2256;48.740;9.106;2023-06-24T00:17:25;15.70;99.90
4487;DHT22;2256;48.740;9.106;2023-06-24T00:19:54;15.70;99.90
4487;DHT22;2256;48.740;9.106;2023-06-24T00:22:22;15.70;99.90
4487;DHT22;2256;48.740;9.106;2023-06-24T00:24:51;15.80;99.90
4487;DHT22;2256;48.740;9.106;2023-06-24T00:27:18;15.70;99.90
4487;DHT22;2256;48.740;9.106;2023-06-24T00:29:45;15.70;99.90
4487;DHT22;2256;48.740;9.106;2023-06-24T00:32:14;15.70;99.90
4487;DHT22;2256;48.740;9.106;2023-06-24T00:34:41;15.70;99.90
4487;DHT22;2256;48.740;9.106;2023-06-24T00:37:14;15.70;99.90
4487;DHT22;2256;48.740;9.106;2023-06-24T00:39:41;15.70;99.90
4487;DHT22;2256;48.740;9.106;2023-06-24T00:42:12;15.60;99.90
4487;DHT22;2256;48.740;9.106;2023-06-24T00:44:53;15.60;99.90
4487;DHT22;2256;48.740;9.106;2023-06-24T00:47:42;15.50;99.90
4487;DHT22;2256;48.740;9.106;2023-06-24T00:50:23;15.40;99.90
4487;DHT22;2256;48.740;9.106;2023-06-24T00:52:57;15.30;99.90
4487;DHT22;2256;48.740;9.106;2023-06-24T00:55:25;15.30;99.90
4487;DHT22;2256;48.740;9.106;2023-06-24T00:57:56;15.20;99.90
4487;DHT22;2256;48.740;9.106;2023-06-24T01:00:31;15.40;99.90
4487;DHT22;2256;48.740;9.106;2023-06-24T01:03:07;15.30;99.90
4487;DHT22;2256;48.740;9.106;2023-06-24T01:05:40;15.30;99.90
4487;DHT22;2256;48.740;9.106;2023-06-24T01:08:07;15.30;99.90
4487;DHT22;2256;48.740;9.106;2023-06-24T01:10:35;15.30;99.90
4487;DHT22;2256;48.740;9.106;2023-06-24T01:13:07;15.30;99.90
4487;DHT22;2256;48.740;9.106;2023-06-24T01:15:37;15.20;99.90
4487;DHT22;2256;48.740;9.106;2023-06-24T01:18:13;15.20;99.90
4487;DHT22;2256;48.740;9.106;2023-06-24T01:20:48;15.10;99.90
4487;DHT22;2256;48.740;9.106;2023-06-24T01:23:51;15.10;99.90
4487;DHT22;2256;48.740;9.106;2023-06-24T01:26:42;15.10;99.90
4487;DHT22;2256;48.740;9.106;2023-06-24T01:29:47;15.00;99.90
4487;DHT22;2256;48.740;9.106;2023-06-24T01:32:29;14.80;99.90
4487;DHT22;2256;48.740;9.106;2023-06-24T01:35:00;14.90;99.90
4487;DHT22;2256;48.740;9.106;2023-06-24T01:37:34;14.90;99.90
4487;DHT22;2256;48.740;9.106;2023-06-24T01:40:06;14.70;99.90
4487;DHT22;2256;48.740;9.106;2023-06-24T01:42:45;14.80;99.90
4487;DHT22;2256;48.740;9.106;2023-06-24T01:45:18;14.70;99.90
4487;DHT22;2256;48.740;9.106;2023-06-24T01:47:56;14.70;99.90
4487;DHT22;2256;48.740;9.106;2023-06-24T01:50:32;14.70;99.90
4487;DHT22;2256;48.740;9.106;2023-06-24T01:53:01;14.70;99.90
4487;DHT22;2256;48.740;9.106;2023-06-24T01:55:32;14.70;99.90
4487;DHT22;2256;48.740;9.106;2023-06-24T01:58:02;14.70;99.90
4487;DHT22;2256;48.740;9.106;2023-06-24T02:00:41;14.60;99.90
4487;DHT22;2256;48.740;9.106;2023-06-24T02:03:15;14.50;99.90
4487;DHT22;2256;48.740;9.106;2023-06-24T02:05:46;14.50;99.90
4487;DHT22;2256;48.740;9.106;2023-06-24T02:08:23;14.60;99.90
4487;DHT22;2256;48.740;9.106;2023-06-24T02:10:51;14.40;99.90
4487;DHT22;2256;48.740;9.106;2023-06-24T02:13:20;14.40;99.90
4487;DHT22;2256;48.740;9.106;2023-06-24T02:15:47;14.50;99.90
4487;DHT22;2256;48.740;9.106;2023-06-24T02:18:25;14.60;99.90
4487;DHT22;2256;48.740;9.106;2023-06-24T02:20:54;14.60;99.90
4487;DHT22;2256;48.740;9.106;2023-06-24T02:23:25;14.50;99.90
4487;DHT22;2256;48.740;9.106;2023-06-24T02:25:53;14.50;99.90
4487;DHT22;2256;48.740;9.106;2023-06-24T02:28:21;14.40;99.90
4487;DHT22;2256;48.740;9.106;2023-06-24T02:30:49;14.20;99.90
4487;DHT22;2256;48.740;9.106;2023-06-24T02:33:17;14.40;99.90
4487;DHT22;2256;48.740;9.106;2023-06-24T02:35:45;14.40;99.90
4487;DHT22;2256;48.740;9.106;2023-06-24T02:38:14;14.40;99.90
4487;DHT22;2256;48.740;9.106;2023-06-24T02:40:43;14.30;99.90
4487;DHT22;2256;48.740;9.106;2023-06-24T02:43:11;14.20;99.90
4487;DHT22;2256;48.740;9.106;2023-06-24T02:45:39;14.20;99.90
4487;DHT22;2256;48.740;9.106;2023-06-24T02:48:07;14.30;99.90
4487;DHT22;2256;48.740;9.106;2023-06-24T02:50:35;14.40;99.90
4487;DHT22;2256;48.740;9.106;2023-06-24T02:53:06;14.30;99.90
4487;DHT22;2256;48.740;9.106;2023-06-24T02:55:33;14.30;99.90
4487;DHT22;2256;48.740;9.106;2023-06-24T02:58:02;14.30;99.90
4487;DHT22;2256;48.740;9.106;2023-06-24T03:00:36;14.30;99.90
4487;DHT22;2256;48.740;9.106;2023-06-24T03:03:05;14.30;99.90
4487;DHT22;2256;48.740;9.106;2023-06-24T03:05:32;14.40;99.90
4487;DHT22;2256;48.740;9.106;2023-06-24T03:08:00;14.40;99.90
4487;DHT22;2256;48.740;9.106;2023-06-24T03:10:30;14.30;99.90
4487;DHT22;2256;48.740;9.106;2023-06-24T03:12:57;14.30;99.90
4487;DHT22;2256;48.740;9.106;2023-06-24T03:15:24;14.30;99.90
4487;DHT22;2256;48.740;9.106;2023-06-24T03:17:54;14.40;99.90
4487;DHT22;2256;48.740;9.106;2023-06-24T03:20:24;14.50;99.90
4487;DHT22;2256;48.740;9.106;2023-06-24T03:22:52;14.60;99.90
4487;DHT22;2256;48.740;9.106;2023-06-24T03:25:23;14.60;99.90
4487;DHT22;2256;48.740;9.106;2023-06-24T03:27:52;14.50;99.90
4487;DHT22;2256;48.740;9.106;2023-06-24T03:30:20;14.50;99.90
4487;DHT22;2256;48.740;9.106;2023-06-24T03:32:47;14.40;99.90
4487;DHT22;2256;48.740;9.106;2023-06-24T03:35:15;14.50;99.90
4487;DHT22;2256;48.740;9.106;2023-06-24T03:37:41;14.50;99.90
4487;DHT22;2256;48.740;9.106;2023-06-24T03:40:09;14.60;99.90
4487;DHT22;2256;48.740;9.106;2023-06-24T03:42:36;14.70;99.90
4487;DHT22;2256;48.740;9.106;2023-06-24T03:45:05;14.80;99.90
4487;DHT22;2256;48.740;9.106;2023-06-24T03:47:35;14.80;99.90
4487;DHT22;2256;48.740;9.106;2023-06-24T03:50:05;14.90;99.90
4487;DHT22;2256;48.740;9.106;2023-06-24T03:52:33;15.00;99.90
4487;DHT22;2256;48.740;9.106;2023-06-24T03:55:00;15.00;99.90
4487;DHT22;2256;48.740;9.106;2023-06-24T03:57:29;15.10;99.90
4487;DHT22;2256;48.740;9.106;2023-06-24T03:59:57;15.10;99.90
4487;DHT22;2256;48.740;9.106;2023-06-24T04:02:26;15.20;99.90
4487;DHT22;2256;48.740;9.106;2023-06-24T04:04:55;15.30;99.90
4487;DHT22;2256;48.740;9.106;2023-06-24T04:07:22;15.40;99.90
4487;DHT22;2256;48.740;9.106;2023-06-24T04:09:54;15.50;99.90
4487;DHT22;2256;48.740;9.106;2023-06-24T04:12:21;15.50;99.90
4487;DHT22;2256;48.740;9.106;2023-06-24T04:14:49;15.60;99.90
4487;DHT22;2256;48.740;9.106;2023-06-24T04:17:16;15.60;99.90
4487;DHT22;2256;48.740;9.106;2023-06-24T04:19:44;15.60;99.90
4487;DHT22;2256;48.740;9.106;2023-06-24T04:22:12;15.80;99.90
4487;DHT22;2256;48.740;9.106;2023-06-24T04:24:38;15.80;99.90
4487;DHT22;2256;48.740;9.106;2023-06-24T04:27:08;15.90;99.90
4487;DHT22;2256;48.740;9.106;2023-06-24T04:29:35;15.90;99.90
4487;DHT22;2256;48.740;9.106;2023-06-24T04:32:03;16.10;99.90
4487;DHT22;2256;48.740;9.106;2023-06-24T04:34:29;16.10;99.90
4487;DHT22;2256;48.740;9.106;2023-06-24T04:36:59;16.20;99.90
4487;DHT22;2256;48.740;9.106;2023-06-24T04:39:26;16.30;99.90
4487;DHT22;2256;48.740;9.106;2023-06-24T04:41:55;16.40;99.90
4487;DHT22;2256;48.740;9.106;2023-06-24T04:44:22;16.40;99.90
4487;DHT22;2256;48.740;9.106;2023-06-24T04:46:49;16.50;99.90
4487;DHT22;2256;48.740;9.106;2023-06-24T04:49:17;16.60;99.90
4487;DHT22;2256;48.740;9.106;2023-06-24T04:51:44;16.70;99.90
4487;DHT22;2256;48.740;9.106;2023-06-24T04:54:12;16.80;99.90
4487;DHT22;2256;48.740;9.106;2023-06-24T04:56:39;17.00;99.90
4487;DHT22;2256;48.740;9.106;2023-06-24T04:59:07;17.00;99.90
4487;DHT22;2256;48.740;9.106;2023-06-24T05:01:33;17.10;99.90
4487;DHT22;2256;48.740;9.106;2023-06-24T05:04:00;17.10;99.90
4487;DHT22;2256;48.740;9.106;2023-06-24T05:06:27;17.10;99.90
4487;DHT22;2256;48.740;9.106;2023-06-24T05:08:54;17.00;99.90
4487;DHT22;2256;48.740;9.106;2023-06-24T05:11:22;17.00;99.90
4487;DHT22;2256;48.740;9.106;2023-06-24T05:13:48;17.20;99.90
4487;DHT22;2256;48.740;9.106;2023-06-24T05:16:15;17.20;99.90
4487;DHT22;2256;48.740;9.106;2023-06-24T05:18:44;17.30;99.90
4487;DHT22;2256;48.740;9.106;2023-06-24T05:21:11;17.30;99.90
4487;DHT22;2256;48.740;9.106;2023-06-24T05:23:38;17.50;99.90
4487;DHT22;2256;48.740;9.106;2023-06-24T05:26:05;17.50;99.90
4487;DHT22;2256;48.740;9.106;2023-06-24T05:28:33;17.50;99.90
4487;DHT22;2256;48.740;9.106;2023-06-24T05:31:00;17.60;99.90
4487;DHT22;2256;48.740;9.106;2023-06-24T05:33:27;17.60;99.90
4487;DHT22;2256;48.740;9.106;2023-06-24T05:35:56;17.70;99.90
4487;DHT22;2256;48.740;9.106;2023-06-24T05:38:22;17.90;99.90
4487;DHT22;2256;48.740;9.106;2023-06-24T05:40:49;17.90;99.90
4487;DHT22;2256;48.740;9.106;2023-06-24T05:43:16;18.00;99.90
4487;DHT22;2256;48.740;9.106;2023-06-24T05:45:44;18.00;99.90
4487;DHT22;2256;48.740;9.106;2023-06-24T05:48:11;18.10;99.90
4487;DHT22;2256;48.740;9.106;2023-06-24T05:50:40;18.10;99.90
4487;DHT22;2256;48.740;9.106;2023-06-24T05:53:07;18.10;99.90
4487;DHT22;2256;48.740;9.106;2023-06-24T05:55:34;18.20;99.90
4487;DHT22;2256;48.740;9.106;2023-06-24T05:58:00;18.40;99.90
4487;DHT22;2256;48.740;9.106;2023-06-24T06:00:27;18.50;99.90
4487;DHT22;2256;48.740;9.106;2023-06-24T06:02:55;18.60;99.90
4487;DHT22;2256;48.740;9.106;2023-06-24T06:05:22;18.70;99.90
4487;DHT22;2256;48.740;9.106;2023-06-24T06:07:49;18.70;99.90
4487;DHT22;2256;48.740;9.106;2023-06-24T06:10:16;18.80;99.90
4487;DHT22;2256;48.740;9.106;2023-06-24T06:12:43;18.90;99.90
4487;DHT22;2256;48.740;9.106;2023-06-24T06:15:10;18.90;99.90
4487;DHT22;2256;48.740;9.106;2023-06-24T06:17:37;19.00;99.90
4487;DHT22;2256;48.740;9.106;2023-06-24T06:20:07;19.10;99.90
4487;DHT22;2256;48.740;9.106;2023-06-24T06:22:34;19.30;99.90
4487;DHT22;2256;48.740;9.106;2023-06-24T06:25:44;19.40;99.90
4487;DHT22;2256;48.740;9.106;2023-06-24T06:28:11;19.60;99.90
4487;DHT22;2256;48.740;9.106;2023-06-24T06:30:38;20.00;99.90
4487;DHT22;2256;48.740;9.106;2023-06-24T06:33:05;20.30;99.50
4487;DHT22;2256;48.740;9.106;2023-06-24T06:35:36;21.00;97.90
4487;DHT22;2256;48.740;9.106;2023-06-24T06:38:02;22.10;97.40
4487;DHT22;2256;48.740;9.106;2023-06-24T06:40:29;23.30;96.10
4487;DHT22;2256;48.740;9.106;2023-06-24T06:42:56;24.50;94.20
4487;DHT22;2256;48.740;9.106;2023-06-24T06:45:23;25.40;92.30
4487;DHT22;2256;48.740;9.106;2023-06-24T06:47:50;26.20;91.20
4487;DHT22;2256;48.740;9.106;2023-06-24T06:50:17;26.90;90.10
4487;DHT22;2256;48.740;9.106;2023-06-24T06:52:48;27.60;89.20
4487;DHT22;2256;48.740;9.106;2023-06-24T06:55:16;28.10;86.30
4487;DHT22;2256;48.740;9.106;2023-06-24T06:57:42;28.70;84.40
4487;DHT22;2256;48.740;9.106;2023-06-24T07:00:10;29.00;82.50
4487;DHT22;2256;48.740;9.106;2023-06-24T07:02:37;29.30;81.10
4487;DHT22;2256;48.740;9.106;2023-06-24T07:05:05;29.60;79.30
4487;DHT22;2256;48.740;9.106;2023-06-24T07:07:32;29.70;79.20
4487;DHT22;2256;48.740;9.106;2023-06-24T07:10:00;29.90;78.40
4487;DHT22;2256;48.740;9.106;2023-06-24T07:12:27;30.20;78.00
4487;DHT22;2256;48.740;9.106;2023-06-24T07:14:54;30.50;77.00
4487;DHT22;2256;48.740;9.106;2023-06-24T07:17:20;30.60;77.00
4487;DHT22;2256;48.740;9.106;2023-06-24T07:19:47;30.90;75.90
4487;DHT22;2256;48.740;9.106;2023-06-24T07:22:14;31.00;75.70
4487;DHT22;2256;48.740;9.106;2023-06-24T07:24:42;31.30;73.40
4487;DHT22;2256;48.740;9.106;2023-06-24T07:27:10;31.70;73.50
4487;DHT22;2256;48.740;9.106;2023-06-24T07:29:37;31.70;72.00
4487;DHT22;2256;48.740;9.106;2023-06-24T07:32:05;31.80;73.30
4487;DHT22;2256;48.740;9.106;2023-06-24T07:34:33;31.80;71.20
4487;DHT22;2256;48.740;9.106;2023-06-24T07:36:59;31.90;70.50
4487;DHT22;2256;48.740;9.106;2023-06-24T07:39:27;32.10;69.20
4487;DHT22;2256;48.740;9.106;2023-06-24T07:41:53;32.10;70.00
4487;DHT22;2256;48.740;9.106;2023-06-24T07:44:21;32.10;70.80
4487;DHT22;2256;48.740;9.106;2023-06-24T07:46:48;32.00;70.60
4487;DHT22;2256;48.740;9.106;2023-06-24T07:49:16;32.00;71.20
4487;DHT22;2256;48.740;9.106;2023-06-24T07:51:43;32.00;70.00
4487;DHT22;2256;48.740;9.106;2023-06-24T07:54:11;32.00;70.70
4487;DHT22;2256;48.740;9.106;2023-06-24T07:56:38;32.20;70.50
4487;DHT22;2256;48.740;9.106;2023-06-24T07:59:05;32.20;70.90
4487;DHT22;2256;48.740;9.106;2023-06-24T08:01:34;32.30;69.80
4487;DHT22;2256;48.740;9.106;2023-06-24T08:04:00;32.60;70.00
4487;DHT22;2256;48.740;9.106;2023-06-24T08:06:28;32.80;70.40
4487;DHT22;2256;48.740;9.106;2023-06-24T08:08:55;32.80;69.80
4487;DHT22;2256;48.740;9.106;2023-06-24T08:11:22;32.90;69.70
4487;DHT22;2256;48.740;9.106;2023-06-24T08:13:48;33.00;68.70
4487;DHT22;2256;48.740;9.106;2023-06-24T08:16:16;33.00;68.80
4487;DHT22;2256;48.740;9.106;2023-06-24T08:18:45;33.00;70.20
4487;DHT22;2256;48.740;9.106;2023-06-24T08:21:11;33.10;69.90
4487;DHT22;2256;48.740;9.106;2023-06-24T08:23:38;32.80;68.90
4487;DHT22;2256;48.740;9.106;2023-06-24T08:26:06;32.60;69.90
4487;DHT22;2256;48.740;9.106;2023-06-24T08:28:35;32.60;69.70
4487;DHT22;2256;48.740;9.106;2023-06-24T08:31:01;32.90;70.40
4487;DHT22;2256;48.740;9.106;2023-06-24T08:33:28;32.80;68.40
4487;DHT22;2256;48.740;9.106;2023-06-24T08:35:56;32.30;68.70
4487;DHT22;2256;48.740;9.106;2023-06-24T08:38:23;31.60;70.80
4487;DHT22;2256;48.740;9.106;2023-06-24T08:40:50;31.70;71.20
4487;DHT22;2256;48.740;9.106;2023-06-24T08:43:17;31.80;71.00
4487;DHT22;2256;48.740;9.106;2023-06-24T08:45:44;32.10;69.90
4487;DHT22;2256;48.740;9.106;2023-06-24T08:48:13;32.10;69.10
4487;DHT22;2256;48.740;9.106;2023-06-24T08:50:45;32.10;69.70
4487;DHT22;2256;48.740;9.106;2023-06-24T08:53:14;32.40;68.40
4487;DHT22;2256;48.740;9.106;2023-06-24T08:55:44;32.50;67.80
4487;DHT22;2256;48.740;9.106;2023-06-24T08:58:12;32.10;67.60
4487;DHT22;2256;48.740;9.106;2023-06-24T09:00:39;31.50;66.80
4487;DHT22;2256;48.740;9.106;2023-06-24T09:03:07;31.40;68.30
4487;DHT22;2256;48.740;9.106;2023-06-24T09:05:34;31.90;67.80
4487;DHT22;2256;48.740;9.106;2023-06-24T09:08:01;32.40;67.20
4487;DHT22;2256;48.740;9.106;2023-06-24T09:10:34;32.60;65.10
4487;DHT22;2256;48.740;9.106;2023-06-24T09:13:02;32.30;67.20
4487;DHT22;2256;48.740;9.106;2023-06-24T09:15:31;32.10;68.40
4487;DHT22;2256;48.740;9.106;2023-06-24T09:17:58;32.20;67.50
4487;DHT22;2256;48.740;9.106;2023-06-24T09:20:25;31.90;67.10
4487;DHT22;2256;48.740;9.106;2023-06-24T09:23:00;31.80;66.60
4487;DHT22;2256;48.740;9.106;2023-06-24T09:25:28;31.90;66.00
4487;DHT22;2256;48.740;9.106;2023-06-24T09:27:58;31.70;66.50
4487;DHT22;2256;48.740;9.106;2023-06-24T09:30:25;31.80;66.00
4487;DHT22;2256;48.740;9.106;2023-06-24T09:32:54;31.70;66.20
4487;DHT22;2256;48.740;9.106;2023-06-24T09:35:22;32.00;65.70
4487;DHT22;2256;48.740;9.106;2023-06-24T09:37:51;32.10;66.30
4487;DHT22;2256;48.740;9.106;2023-06-24T09:40:18;32.40;64.50
4487;DHT22;2256;48.740;9.106;2023-06-24T09:42:52;32.80;65.00
4487;DHT22;2256;48.740;9.106;2023-06-24T09:45:24;33.00;65.80
4487;DHT22;2256;48.740;9.106;2023-06-24T09:47:51;32.60;64.80
4487;DHT22;2256;48.740;9.106;2023-06-24T09:50:18;32.00;66.00
4487;DHT22;2256;48.740;9.106;2023-06-24T09:52:46;31.50;65.60
4487;DHT22;2256;48.740;9.106;2023-06-24T09:55:13;30.30;66.80
4487;DHT22;2256;48.740;9.106;2023-06-24T09:57:42;29.90;70.50
4487;DHT22;2256;48.740;9.106;2023-06-24T10:00:12;29.80;69.00
4487;DHT22;2256;48.740;9.106;2023-06-24T10:02:44;30.10;69.70
4487;DHT22;2256;48.740;9.106;2023-06-24T10:05:12;31.10;67.20
4487;DHT22;2256;48.740;9.106;2023-06-24T10:07:40;31.30;65.60
4487;DHT22;2256;48.740;9.106;2023-06-24T10:10:08;31.60;66.40
4487;DHT22;2256;48.740;9.106;2023-06-24T10:12:35;31.50;65.80
4487;DHT22;2256;48.740;9.106;2023-06-24T10:15:05;31.50;64.50
4487;DHT22;2256;48.740;9.106;2023-06-24T10:17:32;31.10;65.30
4487;DHT22;2256;48.740;9.106;2023-06-24T10:20:03;30.90;65.40
4487;DHT22;2256;48.740;9.106;2023-06-24T10:22:31;30.90;65.50
4487;DHT22;2256;48.740;9.106;2023-06-24T10:25:00;30.70;65.40
4487;DHT22;2256;48.740;9.106;2023-06-24T10:27:27;29.50;64.80
4487;DHT22;2256;48.740;9.106;2023-06-24T10:30:02;28.70;66.10
4487;DHT22;2256;48.740;9.106;2023-06-24T10:32:39;28.00;69.90
4487;DHT22;2256;48.740;9.106;2023-06-24T10:35:21;28.00;68.80
4487;DHT22;2256;48.740;9.106;2023-06-24T10:37:54;28.40;68.70
4487;DHT22;2256;48.740;9.106;2023-06-24T10:40:34;28.30;67.90
4487;DHT22;2256;48.740;9.106;2023-06-24T10:43:04;28.40;69.20
4487;DHT22;2256;48.740;9.106;2023-06-24T10:45:49;28.50;67.60
4487;DHT22;2256;48.740;9.106;2023-06-24T10:48:17;28.70;65.20
4487;DHT22;2256;48.740;9.106;2023-06-24T10:50:48;28.20;64.70
4487;DHT22;2256;48.740;9.106;2023-06-24T10:53:16;27.80;64.60
4487;DHT22;2256;48.740;9.106;2023-06-24T10:55:45;27.70;66.00
4487;DHT22;2256;48.740;9.106;2023-06-24T10:58:13;27.60;65.40
4487;DHT22;2256;48.740;9.106;2023-06-24T11:00:41;27.50;66.20
4487;DHT22;2256;48.740;9.106;2023-06-24T11:03:09;27.30;66.20
4487;DHT22;2256;48.740;9.106;2023-06-24T11:05:38;27.30;66.90
4487;DHT22;2256;48.740;9.106;2023-06-24T11:08:07;27.00;66.10
4487;DHT22;2256;48.740;9.106;2023-06-24T11:10:45;27.20;67.50
4487;DHT22;2256;48.740;9.106;2023-06-24T11:13:13;27.20;69.30
4487;DHT22;2256;48.740;9.106;2023-06-24T11:15:43;27.30;69.50
4487;DHT22;2256;48.740;9.106;2023-06-24T11:18:11;27.50;68.50
4487;DHT22;2256;48.740;9.106;2023-06-24T11:20:38;27.60;68.00
4487;DHT22;2256;48.740;9.106;2023-06-24T11:23:10;27.70;69.20
4487;DHT22;2256;48.740;9.106;2023-06-24T11:25:41;28.10;67.70
4487;DHT22;2256;48.740;9.106;2023-06-24T11:28:15;28.20;66.90
4487;DHT22;2256;48.740;9.106;2023-06-24T11:30:43;28.10;66.50
4487;DHT22;2256;48.740;9.106;2023-06-24T11:33:10;28.20;67.90
4487;DHT22;2256;48.740;9.106;2023-06-24T11:35:37;28.50;66.70
4487;DHT22;2256;48.740;9.106;2023-06-24T11:38:04;28.80;67.00
4487;DHT22;2256;48.740;9.106;2023-06-24T11:40:34;28.90;68.70
4487;DHT22;2256;48.740;9.106;2023-06-24T11:43:01;29.20;66.00
4487;DHT22;2256;48.740;9.106;2023-06-24T11:45:28;29.20;66.60
4487;DHT22;2256;48.740;9.106;2023-06-24T11:48:02;29.30;65.50
4487;DHT22;2256;48.740;9.106;2023-06-24T11:50:30;29.20;63.60
4487;DHT22;2256;48.740;9.106;2023-06-24T11:52:57;28.90;64.40
4487;DHT22;2256;48.740;9.106;2023-06-24T11:55:25;28.80;65.50
4487;DHT22;2256;48.740;9.106;2023-06-24T11:57:55;28.40;66.10
4487;DHT22;2256;48.740;9.106;2023-06-24T12:00:24;28.20;67.20
4487;DHT22;2256;48.740;9.106;2023-06-24T12:02:52;28.30;67.00
4487;DHT22;2256;48.740;9.106;2023-06-24T12:05:23;28.40;67.80
4487;DHT22;2256;48.740;9.106;2023-06-24T12:07:54;28.10;65.80
4487;DHT22;2256;48.740;9.106;2023-06-24T12:10:22;27.90;64.60
4487;DHT22;2256;48.740;9.106;2023-06-24T12:12:49;27.80;65.00
4487;DHT22;2256;48.740;9.106;2023-06-24T12:15:17;27.40;67.80
4487;DHT22;2256;48.740;9.106;2023-06-24T12:17:45;27.20;68.40
4487;DHT22;2256;48.740;9.106;2023-06-24T12:20:12;27.60;68.00
4487;DHT22;2256;48.740;9.106;2023-06-24T12:22:40;28.00;66.10
4487;DHT22;2256;48.740;9.106;2023-06-24T12:25:08;28.20;67.20
4487;DHT22;2256;48.740;9.106;2023-06-24T12:27:36;28.50;65.30
4487;DHT22;2256;48.740;9.106;2023-06-24T12:30:03;28.50;64.30
4487;DHT22;2256;48.740;9.106;2023-06-24T12:32:32;28.30;64.60
4487;DHT22;2256;48.740;9.106;2023-06-24T12:34:59;28.30;65.00
4487;DHT22;2256;48.740;9.106;2023-06-24T12:37:27;28.30;64.20
4487;DHT22;2256;48.740;9.106;2023-06-24T12:39:57;28.20;64.40
4487;DHT22;2256;48.740;9.106;2023-06-24T12:42:24;28.20;65.20
4487;DHT22;2256;48.740;9.106;2023-06-24T12:44:51;28.30;63.90
4487;DHT22;2256;48.740;9.106;2023-06-24T12:47:17;28.30;65.00
4487;DHT22;2256;48.740;9.106;2023-06-24T12:49:46;28.40;67.60
4487;DHT22;2256;48.740;9.106;2023-06-24T12:52:13;28.60;65.40
4487;DHT22;2256;48.740;9.106;2023-06-24T12:54:41;28.80;66.10
4487;DHT22;2256;48.740;9.106;2023-06-24T12:57:08;28.80;64.30
4487;DHT22;2256;48.740;9.106;2023-06-24T12:59:34;28.90;63.30
4487;DHT22;2256;48.740;9.106;2023-06-24T13:02:01;28.80;63.00
4487;DHT22;2256;48.740;9.106;2023-06-24T13:04:28;28.80;63.70
4487;DHT22;2256;48.740;9.106;2023-06-24T13:07:03;28.70;63.50
4487;DHT22;2256;48.740;9.106;2023-06-24T13:09:30;28.60;65.50
4487;DHT22;2256;48.740;9.106;2023-06-24T13:11:58;28.70;64.00
4487;DHT22;2256;48.740;9.106;2023-06-24T13:14:26;28.80;64.20
4487;DHT22;2256;48.740;9.106;2023-06-24T13:16:54;28.90;64.50
4487;DHT22;2256;48.740;9.106;2023-06-24T13:19:21;28.80;64.80
4487;DHT22;2256;48.740;9.106;2023-06-24T13:21:49;28.80;64.50
4487;DHT22;2256;48.740;9.106;2023-06-24T13:24:17;28.90;64.40
4487;DHT22;2256;48.740;9.106;2023-06-24T13:26:44;28.90;65.50
4487;DHT22;2256;48.740;9.106;2023-06-24T13:29:11;29.00;65.50
4487;DHT22;2256;48.740;9.106;2023-06-24T13:31:48;29.10;64.90
4487;DHT22;2256;48.740;9.106;2023-06-24T13:34:15;28.90;64.20
4487;DHT22;2256;48.740;9.106;2023-06-24T13:36:42;28.70;64.40
4487;DHT22;2256;48.740;9.106;2023-06-24T13:39:09;28.40;64.10
4487;DHT22;2256;48.740;9.106;2023-06-24T13:41:40;28.10;64.60
4487;DHT22;2256;48.740;9.106;2023-06-24T13:44:07;28.00;64.80
4487;DHT22;2256;48.740;9.106;2023-06-24T13:46:34;28.10;65.00
4487;DHT22;2256;48.740;9.106;2023-06-24T13:49:01;28.30;65.00
4487;DHT22;2256;48.740;9.106;2023-06-24T13:51:28;28.50;63.80
4487;DHT22;2256;48.740;9.106;2023-06-24T13:53:58;28.60;62.80
4487;DHT22;2256;48.740;9.106;2023-06-24T13:56:25;28.60;63.30
4487;DHT22;2256;48.740;9.106;2023-06-24T13:58:54;28.50;62.70
4487;DHT22;2256;48.740;9.106;2023-06-24T14:01:22;28.60;64.10
4487;DHT22;2256;48.740;9.106;2023-06-24T14:03:49;28.80;63.70
4487;DHT22;2256;48.740;9.106;2023-06-24T14:06:19;29.10;62.60
4487;DHT22;2256;48.740;9.106;2023-06-24T14:08:47;29.30;62.20
4487;DHT22;2256;48.740;9.106;2023-06-24T14:11:14;29.20;62.40
4487;DHT22;2256;48.740;9.106;2023-06-24T14:13:42;28.80;62.20
4487;DHT22;2256;48.740;9.106;2023-06-24T14:16:11;28.40;62.20
4487;DHT22;2256;48.740;9.106;2023-06-24T14:18:38;28.20;61.90
4487;DHT22;2256;48.740;9.106;2023-06-24T14:21:06;28.20;63.60
4487;DHT22;2256;48.740;9.106;2023-06-24T14:23:33;28.40;63.00
4487;DHT22;2256;48.740;9.106;2023-06-24T14:26:01;28.50;63.10
4487;DHT22;2256;48.740;9.106;2023-06-24T14:28:28;28.60;62.00
4487;DHT22;2256;48.740;9.106;2023-06-24T14:30:55;28.70;62.10
4487;DHT22;2256;48.740;9.106;2023-06-24T14:33:23;28.60;62.30
4487;DHT22;2256;48.740;9.106;2023-06-24T14:35:50;28.60;64.40
4487;DHT22;2256;48.740;9.106;2023-06-24T14:38:17;28.80;63.50
4487;DHT22;2256;48.740;9.106;2023-06-24T14:40:43;29.00;63.00
4487;DHT22;2256;48.740;9.106;2023-06-24T14:43:10;29.30;62.60
4487;DHT22;2256;48.740;9.106;2023-06-24T14:45:37;29.50;61.80
4487;DHT22;2256;48.740;9.106;2023-06-24T14:48:04;29.50;62.30
4487;DHT22;2256;48.740;9.106;2023-06-24T14:50:32;29.60;61.20
4487;DHT22;2256;48.740;9.106;2023-06-24T14:52:59;29.40;61.70
4487;DHT22;2256;48.740;9.106;2023-06-24T14:55:25;28.90;63.30
4487;DHT22;2256;48.740;9.106;2023-06-24T14:57:52;28.40;63.80
4487;DHT22;2256;48.740;9.106;2023-06-24T15:00:19;28.10;65.00
4487;DHT22;2256;48.740;9.106;2023-06-24T15:02:46;28.10;65.50
4487;DHT22;2256;48.740;9.106;2023-06-24T15:05:13;28.30;64.70
4487;DHT22;2256;48.740;9.106;2023-06-24T15:07:41;28.40;64.90
4487;DHT22;2256;48.740;9.106;2023-06-24T15:10:08;28.30;65.40
4487;DHT22;2256;48.740;9.106;2023-06-24T15:12:35;28.30;63.60
4487;DHT22;2256;48.740;9.106;2023-06-24T15:15:03;28.30;63.70
4487;DHT22;2256;48.740;9.106;2023-06-24T15:17:30;28.40;63.00
4487;DHT22;2256;48.740;9.106;2023-06-24T15:20:00;28.50;64.70
4487;DHT22;2256;48.740;9.106;2023-06-24T15:22:27;28.80;64.00
4487;DHT22;2256;48.740;9.106;2023-06-24T15:24:56;28.90;63.60
4487;DHT22;2256;48.740;9.106;2023-06-24T15:27:23;29.00;63.30
4487;DHT22;2256;48.740;9.106;2023-06-24T15:29:50;29.00;62.20
4487;DHT22;2256;48.740;9.106;2023-06-24T15:32:16;29.00;62.80
4487;DHT22;2256;48.740;9.106;2023-06-24T15:34:43;28.90;63.90
4487;DHT22;2256;48.740;9.106;2023-06-24T15:37:10;28.80;65.50
4487;DHT22;2256;48.740;9.106;2023-06-24T15:39:39;28.70;63.50
4487;DHT22;2256;48.740;9.106;2023-06-24T15:42:08;28.60;62.90
4487;DHT22;2256;48.740;9.106;2023-06-24T15:44:35;28.30;64.50
4487;DHT22;2256;48.740;9.106;2023-06-24T15:47:04;28.00;63.50
4487;DHT22;2256;48.740;9.106;2023-06-24T15:49:30;28.00;64.70
4487;DHT22;2256;48.740;9.106;2023-06-24T15:51:57;27.90;64.60
4487;DHT22;2256;48.740;9.106;2023-06-24T15:54:24;28.10;63.70
4487;DHT22;2256;48.740;9.106;2023-06-24T15:56:51;28.30;64.80
4487;DHT22;2256;48.740;9.106;2023-06-24T15:59:19;28.40;64.60
4487;DHT22;2256;48.740;9.106;2023-06-24T16:01:46;28.30;64.20
4487;DHT22;2256;48.740;9.106;2023-06-24T16:04:14;28.50;64.00
4487;DHT22;2256;48.740;9.106;2023-06-24T16:06:40;28.60;64.30
4487;DHT22;2256;48.740;9.106;2023-06-24T16:09:07;28.80;64.00
4487;DHT22;2256;48.740;9.106;2023-06-24T16:11:35;28.70;64.70
4487;DHT22;2256;48.740;9.106;2023-06-24T16:14:02;28.60;63.30